Time;durP1;ratioP1;P1;durP2;ratioP2;P2;SDS_P1;SDS_P2;PMS_P1;PMS_P2;Temp;Humidity;BMP_temperature;BMP_pressure;BME280_temperature;BME280_humidity;BME280_pressure;Samples;Min_cycle;Max_cycle;Signal;HPM_P1;HPM_P2
2022/04/01 00:01:41;;;;;;;5.80;3.90;;;1.20;99.90;;;;;;4375233;28;653400;-70
2022/04/01 00:04:28;;;;;;;8.30;4.22;;;1.20;99.90;;;;;;4396223;28;653596;-70
2022/04/01 00:07:15;;;;;;;5.33;3.97;;;1.20;99.90;;;;;;4375732;28;656083;-70
2022/04/01 00:10:04;;;;;;;9.97;5.33;;;1.20;99.90;;;;;;4395890;28;654499;-70
2022/04/01 00:12:52;;;;;;;6.10;3.60;;;1.20;99.90;;;;;;4377418;28;653744;-70
2022/04/01 00:15:39;;;;;;;5.70;4.27;;;1.20;99.90;;;;;;4394063;28;654015;-70
2022/04/01 00:18:26;;;;;;;5.73;4.00;;;1.10;99.90;;;;;;4377103;28;653507;-70
2022/04/01 00:21:14;;;;;;;5.77;4.13;;;1.20;99.90;;;;;;4397211;28;653801;-70
2022/04/01 00:24:01;;;;;;;6.03;3.70;;;1.20;99.90;;;;;;4377892;28;653464;-70
2022/04/01 00:26:50;;;;;;;6.73;3.80;;;1.20;99.90;;;;;;4398419;28;653961;-70
2022/04/01 00:29:37;;;;;;;7.50;4.03;;;1.30;99.90;;;;;;4372346;28;654732;-70
2022/04/01 00:32:25;;;;;;;5.53;4.10;;;1.20;99.90;;;;;;4393038;28;653812;-70
2022/04/01 00:35:12;;;;;;;6.10;4.27;;;1.20;99.90;;;;;;4378265;28;654069;-70
2022/04/01 00:37:59;;;;;;;7.37;4.97;;;1.20;99.90;;;;;;4392764;28;653431;-70
2022/04/01 00:40:48;;;;;;;5.50;3.90;;;1.20;99.90;;;;;;4377394;28;653878;-70
2022/04/01 00:43:37;;;;;;;5.27;3.60;;;1.10;99.90;;;;;;4380751;28;654105;-70
2022/04/01 00:46:24;;;;;;;5.37;3.80;;;1.10;99.90;;;;;;4392990;28;653271;-70
2022/04/01 00:49:11;;;;;;;5.47;3.90;;;1.10;99.90;;;;;;4371679;28;653644;-70
2022/04/01 00:52:00;;;;;;;6.57;3.63;;;1.10;99.90;;;;;;4393983;28;653624;-70
2022/04/01 00:54:47;;;;;;;5.67;3.97;;;1.10;99.90;;;;;;4371848;28;654474;-70
2022/04/01 00:57:34;;;;;;;6.07;3.90;;;1.20;99.90;;;;;;4396622;28;653489;-70
2022/04/01 01:00:25;;;;;;;5.60;3.60;;;1.10;99.90;;;;;;4378075;28;653385;-70
2022/04/01 01:03:13;;;;;;;3.93;3.40;;;1.20;99.90;;;;;;4372860;28;653866;-70
2022/04/01 01:06:00;;;;;;;6.20;3.90;;;1.10;99.90;;;;;;4378274;28;654312;-70
2022/04/01 01:08:48;;;;;;;5.10;3.90;;;1.10;99.90;;;;;;4401642;28;654232;-70
2022/04/01 01:11:35;;;;;;;4.83;3.60;;;1.00;99.90;;;;;;4386069;28;653681;-70
2022/04/01 01:14:28;;;;;;;4.77;3.63;;;1.10;99.90;;;;;;4393168;28;654630;-70
2022/04/01 01:17:17;;;;;;;4.53;3.67;;;1.10;99.90;;;;;;4355521;28;654181;-70
2022/04/01 01:20:12;;;;;;;5.40;3.65;;;1.10;99.90;;;;;;4398709;28;654078;-70
2022/04/01 01:23:00;;;;;;;6.97;4.03;;;1.00;99.90;;;;;;4375600;28;653375;-70
2022/04/01 01:25:49;;;;;;;5.20;3.43;;;1.00;99.90;;;;;;4378542;28;653880;-70
2022/04/01 01:28:36;;;;;;;5.40;3.97;;;1.00;99.90;;;;;;4380356;28;653757;-70
2022/04/01 01:31:24;;;;;;;5.13;3.77;;;1.00;99.90;;;;;;4396162;28;654265;-70
2022/04/01 01:34:11;;;;;;;6.87;3.83;;;0.90;99.90;;;;;;4372632;28;653540;-70
2022/04/01 01:36:59;;;;;;;7.33;4.10;;;1.00;99.90;;;;;;4395011;28;653356;-70
2022/04/01 01:39:46;;;;;;;6.40;3.60;;;0.90;99.90;;;;;;4376944;28;653748;-70
2022/04/01 01:42:35;;;;;;;7.87;3.47;;;1.00;99.90;;;;;;4395954;28;654282;-70
2022/04/01 01:45:23;;;;;;;5.30;3.40;;;1.00;99.90;;;;;;4368457;28;653922;-70
2022/04/01 01:48:10;;;;;;;5.57;3.50;;;1.00;99.90;;;;;;4382946;28;653650;-70
2022/04/01 01:57:07;;;;;;;5.23;3.37;;;1.00;99.90;;;;;;4347974;28;654785;-70
2022/04/01 01:59:57;;;;;;;4.27;2.90;;;1.00;99.90;;;;;;4391918;28;653568;-70
2022/04/01 02:02:44;;;;;;;4.20;3.13;;;1.00;99.90;;;;;;4395553;28;653217;-70
2022/04/01 02:05:31;;;;;;;4.03;2.97;;;1.00;99.90;;;;;;4377220;28;653463;-70
2022/04/01 02:08:19;;;;;;;5.70;3.20;;;1.00;99.90;;;;;;4397279;28;654453;-70
2022/04/01 02:11:07;;;;;;;4.87;3.23;;;1.00;99.90;;;;;;4377697;28;653306;-70
2022/04/01 02:13:54;;;;;;;4.30;3.05;;;1.00;99.90;;;;;;4393287;28;653253;-70
2022/04/01 02:16:44;;;;;;;3.53;2.73;;;1.00;99.90;;;;;;4374340;28;653305;-71
2022/04/01 02:19:31;;;;;;;3.93;2.47;;;1.00;99.90;;;;;;4378162;28;654136;-70
2022/04/01 02:22:19;;;;;;;3.87;2.67;;;1.00;99.90;;;;;;4394229;28;653437;-70
2022/04/01 02:25:07;;;;;;;3.97;2.87;;;0.90;99.90;;;;;;4372033;28;654838;-70
2022/04/01 02:27:56;;;;;;;3.43;2.87;;;0.90;99.90;;;;;;4388730;28;654467;-70
2022/04/01 02:30:44;;;;;;;3.03;2.43;;;0.90;99.90;;;;;;4390972;28;655574;-70
2022/04/01 02:33:34;;;;;;;4.43;2.70;;;0.90;99.90;;;;;;4370094;28;654985;-70
2022/04/01 02:36:22;;;;;;;2.83;2.40;;;0.90;99.90;;;;;;4374888;28;654445;-70
2022/04/01 02:39:09;;;;;;;2.83;2.00;;;0.90;99.90;;;;;;4401272;28;656838;-70
2022/04/01 02:41:57;;;;;;;3.23;2.60;;;1.00;99.90;;;;;;4373901;28;654744;-70
2022/04/01 02:44:44;;;;;;;2.90;2.27;;;0.90;99.90;;;;;;4393171;28;655130;-70
2022/04/01 02:47:32;;;;;;;3.63;2.37;;;0.90;99.90;;;;;;4374582;28;654460;-70
2022/04/01 02:50:21;;;;;;;3.83;2.50;;;0.90;99.90;;;;;;4396609;28;656243;-70
2022/04/01 02:53:08;;;;;;;3.87;2.70;;;0.90;99.90;;;;;;4372071;28;654877;-70
2022/04/01 02:55:55;;;;;;;3.65;2.72;;;0.90;99.90;;;;;;4368438;28;654489;-70
2022/04/01 02:58:43;;;;;;;3.87;2.90;;;0.80;99.90;;;;;;4388607;28;654627;-70
2022/04/01 03:01:30;;;;;;;3.93;2.37;;;0.80;99.90;;;;;;4378960;28;654507;-70
2022/04/01 03:04:18;;;;;;;4.60;3.20;;;0.90;99.90;;;;;;4393452;28;655644;-70
2022/04/01 03:07:07;;;;;;;3.80;2.83;;;0.90;99.90;;;;;;4383114;28;655247;-70
2022/04/01 03:09:54;;;;;;;3.07;2.63;;;1.00;99.90;;;;;;4396585;28;656041;-70
2022/04/01 03:12:42;;;;;;;4.90;2.93;;;1.00;99.90;;;;;;4376320;28;654404;-70
2022/04/01 03:15:29;;;;;;;4.03;3.10;;;0.90;99.90;;;;;;4396576;28;654445;-70
2022/04/01 03:18:17;;;;;;;4.20;3.27;;;0.90;99.90;;;;;;4376026;28;654195;-70
2022/04/01 03:21:04;;;;;;;4.67;3.23;;;0.90;99.90;;;;;;4400773;28;654095;-70
2022/04/01 03:23:53;;;;;;;3.73;3.17;;;0.90;99.90;;;;;;4376503;28;655129;-70
2022/04/01 03:26:40;;;;;;;4.15;3.33;;;0.90;99.90;;;;;;4385585;28;654912;-70
2022/04/01 03:29:28;;;;;;;4.63;3.27;;;0.90;99.90;;;;;;4397105;28;655408;-70
2022/04/01 03:32:16;;;;;;;3.80;3.10;;;0.90;99.90;;;;;;4378680;28;655209;-70
2022/04/01 03:35:03;;;;;;;4.57;3.00;;;0.90;99.90;;;;;;4396399;28;655304;-70
2022/04/01 03:37:51;;;;;;;4.00;3.30;;;0.80;99.90;;;;;;4377541;28;655208;-71
2022/04/01 03:40:40;;;;;;;3.00;2.60;;;0.80;99.90;;;;;;4401876;28;655153;-70
2022/04/01 03:43:28;;;;;;;3.27;2.70;;;0.80;99.90;;;;;;4372852;28;654731;-70
2022/04/01 03:46:17;;;;;;;4.20;3.07;;;0.90;99.90;;;;;;4387820;28;654846;-70
2022/04/01 03:49:07;;;;;;;3.37;2.60;;;0.90;99.90;;;;;;4400897;28;654426;-70
2022/04/01 03:51:55;;;;;;;4.13;3.10;;;0.90;99.90;;;;;;4378280;28;654518;-70
2022/04/01 03:54:43;;;;;;;3.67;2.90;;;0.90;99.90;;;;;;4376910;28;656073;-70
2022/04/01 03:57:34;;;;;;;3.67;2.90;;;0.80;99.90;;;;;;4380267;28;654765;-70
2022/04/01 04:00:22;;;;;;;3.30;2.60;;;0.80;99.90;;;;;;4379032;28;654623;-70
2022/04/01 04:03:09;;;;;;;3.00;2.40;;;0.80;99.90;;;;;;4397391;28;654794;-70
2022/04/01 04:05:57;;;;;;;3.60;2.73;;;0.70;99.90;;;;;;4376094;28;654911;-70
2022/04/01 04:08:45;;;;;;;2.73;2.10;;;0.70;99.90;;;;;;4394310;28;654701;-70
2022/04/01 04:11:33;;;;;;;2.90;2.60;;;0.80;99.90;;;;;;4375107;28;655565;-70
2022/04/01 04:14:22;;;;;;;3.28;2.40;;;0.80;99.90;;;;;;4383078;28;654306;-70
2022/04/01 04:17:12;;;;;;;3.15;2.80;;;0.70;99.90;;;;;;4392312;28;654848;-70
2022/04/01 04:20:02;;;;;;;3.30;2.87;;;0.80;99.90;;;;;;4374120;28;654676;-70
2022/04/01 04:22:52;;;;;;;4.60;3.10;;;0.70;99.90;;;;;;4372676;28;655350;-70
2022/04/01 04:25:40;;;;;;;3.17;2.80;;;0.70;99.90;;;;;;4375561;28;655304;-70
2022/04/01 04:28:28;;;;;;;2.50;2.27;;;0.70;99.90;;;;;;4371679;28;655330;-70
2022/04/01 04:31:21;;;;;;;3.73;2.90;;;0.70;99.90;;;;;;4388420;28;654740;-70
2022/04/01 04:34:10;;;;;;;4.00;2.83;;;0.70;99.90;;;;;;4373388;28;655392;-70
2022/04/01 04:36:58;;;;;;;3.75;3.05;;;0.70;99.90;;;;;;4376389;28;655217;-70
2022/04/01 04:39:45;;;;;;;3.80;2.90;;;0.70;99.90;;;;;;4378506;28;654481;-70
2022/04/01 04:42:33;;;;;;;4.03;3.40;;;0.70;99.90;;;;;;4395004;28;655323;-71
2022/04/01 04:45:22;;;;;;;4.30;3.25;;;0.70;99.90;;;;;;4373926;28;654711;-70
2022/04/01 04:48:10;;;;;;;6.00;3.90;;;0.80;99.90;;;;;;4398791;28;654705;-70
2022/04/01 04:50:59;;;;;;;5.20;3.80;;;0.70;99.90;;;;;;4375577;28;655715;-70
2022/04/01 04:53:47;;;;;;;3.57;3.00;;;0.60;99.90;;;;;;4373425;28;654136;-71
2022/04/01 04:56:34;;;;;;;3.83;3.30;;;0.70;99.90;;;;;;4392727;28;654724;-70
2022/04/01 04:59:22;;;;;;;4.40;3.30;;;0.70;99.90;;;;;;4375266;28;654662;-70
2022/04/01 05:02:11;;;;;;;3.47;2.90;;;0.70;99.90;;;;;;4393640;28;654522;-71
2022/04/01 05:05:04;;;;;;;4.43;3.50;;;0.70;99.90;;;;;;4370328;28;654565;-70
2022/04/01 05:07:58;;;;;;;3.83;3.17;;;0.70;99.90;;;;;;4376363;28;655564;-70
2022/04/01 05:10:52;;;;;;;4.17;3.23;;;0.70;99.90;;;;;;4376118;28;654744;-70
2022/04/01 05:13:46;;;;;;;4.27;3.30;;;0.80;99.90;;;;;;4369477;28;654886;-70
2022/04/01 05:16:37;;;;;;;4.13;3.43;;;0.80;99.90;;;;;;4370446;28;655157;-70
2022/04/01 05:19:26;;;;;;;4.80;3.80;;;0.80;99.90;;;;;;4371945;28;654547;-71
2022/04/01 05:22:15;;;;;;;4.73;3.83;;;0.90;99.90;;;;;;4375676;28;654624;-71
2022/04/01 05:25:03;;;;;;;7.03;4.30;;;0.80;99.90;;;;;;4373811;28;655585;-71
2022/04/01 05:27:52;;;;;;;6.17;4.53;;;0.90;99.90;;;;;;4375952;28;655200;-70
2022/04/01 05:30:40;;;;;;;5.87;3.97;;;0.90;99.90;;;;;;4394340;28;654977;-70
2022/04/01 05:33:28;;;;;;;5.47;4.43;;;0.90;99.90;;;;;;4376925;28;655760;-70
2022/04/01 05:36:15;;;;;;;8.10;4.67;;;0.90;99.90;;;;;;4389437;28;654598;-71
2022/04/01 05:39:04;;;;;;;5.70;4.30;;;0.90;99.90;;;;;;4396817;28;655129;-71
2022/04/01 05:41:51;;;;;;;5.88;4.13;;;0.90;99.90;;;;;;4376655;28;655472;-71
2022/04/01 05:44:39;;;;;;;5.50;4.30;;;0.90;99.90;;;;;;4394389;28;655626;-71
2022/04/01 05:47:27;;;;;;;81.07;5.63;;;1.00;99.90;;;;;;4372672;28;654991;-71
2022/04/01 05:50:18;;;;;;;6.93;5.50;;;1.10;99.90;;;;;;4391093;28;655229;-70
2022/04/01 05:53:06;;;;;;;9.80;4.43;;;1.20;99.90;;;;;;4377577;28;654632;-70
2022/04/01 05:55:55;;;;;;;5.43;4.33;;;1.20;99.90;;;;;;4391647;28;654766;-70
2022/04/01 05:58:43;;;;;;;6.63;4.23;;;1.10;99.90;;;;;;4374555;28;655103;-71
2022/04/01 06:01:36;;;;;;;6.28;4.57;;;1.20;99.90;;;;;;4368417;28;654563;-70
2022/04/01 06:04:44;;;;;;;6.53;4.30;;;1.20;99.90;;;;;;4361850;28;655418;-70
2022/04/01 06:07:36;;;;;;;5.77;4.43;;;1.30;99.90;;;;;;4343711;28;655080;-71
2022/04/01 06:10:26;;;;;;;7.13;5.13;;;1.40;99.90;;;;;;4372490;28;655401;-71
2022/04/01 06:13:21;;;;;;;7.00;5.33;;;1.40;99.90;;;;;;4370317;28;655091;-71
2022/04/01 06:16:18;;;;;;;7.97;5.70;;;1.40;99.90;;;;;;4364659;28;654331;-71
2022/04/01 06:19:12;;;;;;;9.80;6.00;;;1.50;99.90;;;;;;4375341;28;654067;-70
2022/04/01 06:22:03;;;;;;;11.17;6.67;;;1.60;99.90;;;;;;4372024;28;654101;-70
2022/04/01 06:24:56;;;;;;;7.88;5.07;;;1.70;99.90;;;;;;4343086;28;656124;-70
2022/04/01 06:27:45;;;;;;;8.27;4.73;;;1.70;99.90;;;;;;4370521;28;654779;-70
2022/04/01 06:30:34;;;;;;;11.77;6.40;;;1.80;99.90;;;;;;4367208;28;654890;-70
2022/04/01 06:33:33;;;;;;;7.63;4.50;;;1.90;99.90;;;;;;4366882;28;656068;-70
2022/04/01 06:36:24;;;;;;;7.97;5.17;;;2.00;99.90;;;;;;4346491;28;655164;-70
2022/04/01 06:39:11;;;;;;;9.67;5.60;;;2.10;99.90;;;;;;4374723;28;654603;-70
2022/04/01 06:41:59;;;;;;;11.53;5.80;;;2.00;99.90;;;;;;4398074;28;655458;-70
2022/04/01 06:44:46;;;;;;;9.17;4.93;;;2.00;99.90;;;;;;4367120;28;655907;-70
2022/04/01 06:47:35;;;;;;;8.87;5.67;;;2.10;99.90;;;;;;4395474;28;655258;-70
2022/04/01 06:50:22;;;;;;;8.03;5.53;;;2.10;99.90;;;;;;4362225;28;655974;-70
2022/04/01 06:53:10;;;;;;;7.90;5.23;;;2.10;99.90;;;;;;4393198;28;655533;-70
2022/04/01 06:55:57;;;;;;;8.00;5.57;;;2.20;99.90;;;;;;4368968;28;655055;-70
2022/04/01 06:58:47;;;;;;;7.70;5.30;;;2.10;99.90;;;;;;4385835;28;655414;-70
2022/04/01 07:01:34;;;;;;;6.97;4.73;;;2.10;99.90;;;;;;4371889;28;654612;-70
2022/04/01 07:04:23;;;;;;;8.17;5.20;;;2.10;99.90;;;;;;4365038;28;654294;-69
2022/04/01 07:07:11;;;;;;;6.30;5.10;;;2.20;99.90;;;;;;4376749;28;654999;-70
2022/04/01 07:09:58;;;;;;;6.40;4.78;;;2.10;99.90;;;;;;4393304;28;655066;-70
2022/04/01 07:12:46;;;;;;;7.23;5.30;;;2.10;99.90;;;;;;4369994;28;654904;-70
2022/04/01 07:15:33;;;;;;;8.30;5.37;;;2.20;99.90;;;;;;4389950;28;655029;-70
2022/04/01 07:18:21;;;;;;;7.82;5.13;;;2.10;99.90;;;;;;4366421;28;654728;-70
2022/04/01 07:21:10;;;;;;;6.63;4.67;;;2.10;99.90;;;;;;4391650;28;654141;-70
2022/04/01 07:23:59;;;;;;;5.78;3.83;;;2.00;99.90;;;;;;4365773;28;655196;-70
2022/04/01 07:26:47;;;;;;;6.70;4.55;;;2.10;99.90;;;;;;4376205;28;654550;-70
2022/04/01 07:29:34;;;;;;;7.50;4.83;;;2.10;99.90;;;;;;4400959;28;654220;-70
2022/04/01 07:32:32;;;;;;;6.20;4.77;;;1.90;99.90;;;;;;4370546;28;654446;-69
2022/04/01 07:35:19;;;;;;;6.43;4.63;;;2.10;99.90;;;;;;4365021;28;654615;-69
2022/04/01 07:38:08;;;;;;;6.40;4.47;;;2.10;99.90;;;;;;4374744;28;654576;-70
2022/04/01 07:40:56;;;;;;;6.23;4.60;;;2.10;99.90;;;;;;4374192;28;654792;-69
2022/04/01 07:44:02;;;;;;;6.77;4.67;;;2.10;99.90;;;;;;4386403;28;655375;-70
2022/04/01 07:46:49;;;;;;;7.67;4.70;;;2.10;99.90;;;;;;4364730;28;654721;-69
2022/04/01 07:49:37;;;;;;;7.73;5.00;;;2.00;99.90;;;;;;4370662;28;654619;-69
2022/04/01 07:52:32;;;;;;;10.80;6.13;;;1.90;99.90;;;;;;4392334;28;654065;-69
2022/04/01 07:55:21;;;;;;;7.17;4.40;;;1.80;99.90;;;;;;4364589;28;655613;-69
2022/04/01 07:58:09;;;;;;;6.73;4.47;;;1.80;99.90;;;;;;4360511;28;654560;-69
2022/04/01 08:00:57;;;;;;;8.00;4.87;;;1.80;99.90;;;;;;4371193;28;654682;-69
2022/04/01 08:03:45;;;;;;;13.83;6.10;;;1.60;99.90;;;;;;4389770;28;654619;-69
2022/04/01 08:06:33;;;;;;;8.03;4.40;;;1.60;99.90;;;;;;4371932;28;656479;-69
2022/04/01 08:09:20;;;;;;;11.87;6.30;;;1.60;99.90;;;;;;4384433;28;654628;-69
2022/04/01 08:12:09;;;;;;;9.67;5.63;;;1.50;99.90;;;;;;4393290;28;656501;-69
2022/04/01 08:14:57;;;;;;;13.20;5.43;;;1.60;99.90;;;;;;4377416;28;654535;-69
2022/04/01 08:17:44;;;;;;;9.87;5.90;;;1.60;99.90;;;;;;4388203;28;655817;-69
2022/04/01 08:20:31;;;;;;;12.70;6.80;;;1.60;99.90;;;;;;4377790;28;654488;-70
2022/04/01 08:23:19;;;;;;;9.47;5.70;;;1.60;99.90;;;;;;4391054;28;655795;-68
2022/04/01 08:26:07;;;;;;;12.93;6.87;;;1.80;99.90;;;;;;4378679;28;654694;-68
2022/04/01 08:28:55;;;;;;;14.83;7.40;;;1.80;99.90;;;;;;4393989;28;655084;-68
2022/04/01 08:31:43;;;;;;;7.10;5.20;;;2.00;99.90;;;;;;4366171;28;656167;-69
2022/04/01 08:34:30;;;;;;;9.97;5.67;;;2.10;99.90;;;;;;4377291;28;654443;-68
2022/04/01 08:37:18;;;;;;;14.30;6.37;;;2.40;99.90;;;;;;4403059;28;654761;-69
2022/04/01 08:40:06;;;;;;;10.90;6.43;;;2.60;99.90;;;;;;4369489;28;655644;-69
2022/04/01 08:42:54;;;;;;;11.90;5.97;;;3.00;99.90;;;;;;4389757;28;655639;-69
2022/04/01 08:45:43;;;;;;;12.07;5.30;;;3.30;99.90;;;;;;4371020;28;655786;-69
2022/04/01 08:48:31;;;;;;;43.63;11.10;;;3.50;99.90;;;;;;4383050;28;655660;-69
2022/04/01 08:51:18;;;;;;;6.77;4.67;;;3.50;99.90;;;;;;4392264;28;657228;-69
2022/04/01 08:54:05;;;;;;;8.53;5.50;;;3.50;99.90;;;;;;4378055;28;654289;-69
2022/04/01 08:56:53;;;;;;;6.73;4.70;;;3.50;99.90;;;;;;4395975;28;655117;-70
2022/04/01 08:59:40;;;;;;;7.43;5.27;;;3.40;99.90;;;;;;4377715;28;654888;-69
2022/04/01 09:02:29;;;;;;;6.70;5.13;;;3.20;99.90;;;;;;4390981;28;655932;-69
2022/04/01 09:05:16;;;;;;;8.03;4.77;;;3.20;99.90;;;;;;4368357;28;654530;-69
2022/04/01 09:08:05;;;;;;;6.20;4.50;;;3.20;99.90;;;;;;4393487;28;654973;-69
2022/04/01 09:10:58;;;;;;;8.73;6.40;;;3.30;99.90;;;;;;4367989;28;655369;-69
2022/04/01 09:13:49;;;;;;;7.87;5.93;;;3.30;99.90;;;;;;4356553;28;654780;-69
2022/04/01 09:16:41;;;;;;;10.13;6.47;;;3.40;99.90;;;;;;4368157;28;654463;-69
2022/04/01 09:19:33;;;;;;;8.67;5.90;;;3.50;99.90;;;;;;4367933;28;656254;-69
2022/04/01 09:22:21;;;;;;;7.37;5.07;;;3.70;99.90;;;;;;4351809;28;655038;-69
2022/04/01 09:25:10;;;;;;;9.13;6.23;;;3.70;99.90;;;;;;4397623;28;654189;-69
2022/04/01 09:27:57;;;;;;;8.97;5.33;;;3.70;99.90;;;;;;4379424;28;655723;-69
2022/04/01 09:30:45;;;;;;;8.77;5.73;;;3.70;99.90;;;;;;4391508;28;654649;-69
2022/04/01 09:33:46;;;;;;;11.40;5.90;;;3.80;99.90;;;;;;4394078;28;655075;-69
2022/04/01 09:36:36;;;;;;;11.40;6.83;;;3.90;99.90;;;;;;4371798;28;655438;-69
2022/04/01 09:39:24;;;;;;;9.00;5.70;;;4.00;99.90;;;;;;4366279;28;657267;-69
2022/04/01 09:42:12;;;;;;;7.07;4.73;;;4.00;99.90;;;;;;4376317;28;654923;-69
2022/04/01 09:44:59;;;;;;;8.47;4.87;;;4.00;99.90;;;;;;4393327;28;654163;-69
2022/04/01 09:47:47;;;;;;;9.57;5.10;;;4.00;99.90;;;;;;4376223;28;655167;-69
2022/04/01 09:50:36;;;;;;;9.70;5.83;;;4.00;99.90;;;;;;4396080;28;653951;-69
2022/04/01 09:53:25;;;;;;;10.03;5.30;;;3.90;99.90;;;;;;4365569;28;654812;-69
2022/04/01 09:56:13;;;;;;;7.27;4.83;;;4.30;99.90;;;;;;4371420;28;656510;-69
2022/04/01 09:59:00;;;;;;;8.23;5.47;;;4.80;99.90;;;;;;4379409;28;654506;-69
2022/04/01 10:01:48;;;;;;;10.83;6.53;;;5.20;99.90;;;;;;4395416;28;654924;-69
2022/04/01 10:04:35;;;;;;;12.90;6.90;;;5.50;99.90;;;;;;4380126;28;655924;-69
2022/04/01 10:07:23;;;;;;;12.93;6.53;;;5.70;97.40;;;;;;4388081;28;656370;-69
2022/04/01 10:10:12;;;;;;;7.60;4.93;;;5.80;98.30;;;;;;4374870;28;656237;-69
2022/04/01 10:13:01;;;;;;;6.18;4.40;;;5.90;95.90;;;;;;4386916;28;654455;-69
2022/04/01 10:15:49;;;;;;;10.67;5.33;;;5.80;94.60;;;;;;4369564;28;654703;-69
2022/04/01 10:18:36;;;;;;;6.83;4.77;;;5.70;94.40;;;;;;4364728;28;656073;-69
2022/04/01 10:21:24;;;;;;;6.77;4.43;;;5.70;97.70;;;;;;4396924;28;654533;-70
2022/04/01 10:24:17;;;;;;;11.60;5.83;;;5.70;96.50;;;;;;4371372;28;654882;-70
2022/04/01 10:27:14;;;;;;;5.20;3.30;;;5.70;97.00;;;;;;4377397;28;655371;-69
2022/04/01 10:30:02;;;;;;;28.33;8.83;;;5.70;92.90;;;;;;4355256;28;654644;-69
2022/04/01 10:32:49;;;;;;;60.47;14.40;;;5.70;95.00;;;;;;4396681;28;655165;-70
2022/04/01 10:35:38;;;;;;;25.97;8.33;;;5.80;97.40;;;;;;4371408;28;656665;-69
2022/04/01 10:38:27;;;;;;;20.90;10.57;;;5.90;96.70;;;;;;4368895;28;656205;-69
2022/04/01 10:41:15;;;;;;;7.13;4.90;;;5.80;95.40;;;;;;4388513;28;657283;-69
2022/04/01 10:44:06;;;;;;;13.10;9.10;;;5.90;94.60;;;;;;4368906;28;655501;-69
2022/04/01 10:46:57;;;;;;;9.82;6.15;;;5.80;95.60;;;;;;4372115;28;655994;-69
2022/04/01 10:52:53;;;;;;;8.30;5.53;;;5.80;97.00;;;;;;4370353;28;654628;-69
2022/04/01 10:55:40;;;;;;;10.20;7.17;;;6.10;96.70;;;;;;4348973;28;654744;-69
2022/04/01 10:58:28;;;;;;;9.90;6.10;;;6.20;92.70;;;;;;4392767;28;656496;-69
2022/04/01 11:01:25;;;;;;;9.35;5.10;;;6.10;91.20;;;;;;4372951;28;655002;-69
2022/04/01 11:04:28;;;;;;;12.33;7.90;;;5.80;91.70;;;;;;4347125;28;655466;-69
2022/04/01 11:07:30;;;;;;;17.20;9.70;;;5.40;96.80;;;;;;4346542;28;656195;-69
2022/04/01 11:10:25;;;;;;;13.00;8.03;;;5.10;98.40;;;;;;4346635;28;655320;-69
2022/04/01 11:13:30;;;;;;;9.43;6.27;;;4.80;99.90;;;;;;4367552;28;655737;-69
2022/04/01 11:16:20;;;;;;;9.57;7.00;;;4.70;99.90;;;;;;4351541;28;654873;-69
2022/04/01 11:19:16;;;;;;;12.70;7.93;;;4.50;99.90;;;;;;4368204;28;654930;-69
2022/04/01 11:22:10;;;;;;;27.93;15.50;;;4.30;99.90;;;;;;4366115;28;655708;-70
2022/04/01 11:24:57;;;;;;;12.10;8.70;;;4.20;99.90;;;;;;4339510;28;657610;-69
2022/04/01 11:27:50;;;;;;;15.67;8.70;;;4.00;99.90;;;;;;4388538;28;655396;-69
2022/04/01 11:30:42;;;;;;;10.37;7.30;;;4.00;99.90;;;;;;4368467;28;656489;-70
2022/04/01 11:33:30;;;;;;;13.07;8.70;;;3.90;99.90;;;;;;4386130;28;655548;-70
2022/04/01 11:36:21;;;;;;;9.43;6.87;;;3.80;99.90;;;;;;4385377;28;656155;-69
2022/04/01 11:39:10;;;;;;;9.37;6.70;;;3.80;99.90;;;;;;4370851;28;655841;-70
2022/04/01 11:41:57;;;;;;;55.60;16.00;;;3.70;99.90;;;;;;4373569;28;655925;-69
2022/04/01 11:44:55;;;;;;;17.08;9.93;;;3.60;99.90;;;;;;4386925;28;657082;-69
2022/04/01 11:47:42;;;;;;;13.13;9.27;;;3.50;99.90;;;;;;4373210;28;656613;-69
2022/04/01 11:50:30;;;;;;;10.33;7.77;;;3.40;99.90;;;;;;4396841;28;658385;-69
2022/04/01 11:53:21;;;;;;;12.30;8.50;;;3.40;99.90;;;;;;4365043;28;657316;-69
2022/04/01 11:56:10;;;;;;;11.97;8.00;;;3.40;99.90;;;;;;4361764;28;657420;-70
2022/04/01 11:58:59;;;;;;;10.73;7.43;;;3.50;99.90;;;;;;4367777;28;656607;-69
2022/04/01 12:01:58;;;;;;;16.63;9.63;;;3.60;99.90;;;;;;4368968;28;656303;-69
2022/04/01 12:04:45;;;;;;;10.73;7.47;;;3.70;99.90;;;;;;4350527;28;656843;-69
2022/04/01 12:10:39;;;;;;;11.90;8.00;;;3.70;99.90;;;;;;4369356;28;656001;-69
2022/04/01 12:13:28;;;;;;;13.17;8.13;;;3.60;99.90;;;;;;4373715;28;655851;-69
2022/04/01 12:16:16;;;;;;;12.53;8.20;;;3.60;99.90;;;;;;4373326;28;655551;-69
2022/04/01 12:19:03;;;;;;;10.70;7.87;;;3.40;99.90;;;;;;4393622;28;656254;-69
2022/04/01 12:21:51;;;;;;;12.70;8.77;;;3.40;99.90;;;;;;4373646;28;655754;-69
2022/04/01 12:24:38;;;;;;;11.67;8.40;;;3.30;99.90;;;;;;4384468;28;656015;-69
2022/04/01 12:27:27;;;;;;;12.03;8.30;;;3.30;99.90;;;;;;4372435;28;655402;-69
2022/04/01 12:30:15;;;;;;;11.47;8.37;;;3.20;99.90;;;;;;4391871;28;655453;-69
2022/04/01 12:33:03;;;;;;;13.93;9.47;;;3.10;99.90;;;;;;4371662;28;656550;-69
2022/04/01 12:35:57;;;;;;;13.00;8.30;;;3.20;99.90;;;;;;4375846;28;656472;-69
2022/04/01 12:38:48;;;;;;;13.10;8.77;;;3.10;99.90;;;;;;4369175;28;655614;-69
2022/04/01 12:41:36;;;;;;;13.53;9.13;;;3.20;99.90;;;;;;4345032;28;655368;-69
2022/04/01 12:44:26;;;;;;;11.87;8.57;;;3.30;99.90;;;;;;4387906;28;656452;-69
2022/04/01 12:47:26;;;;;;;12.33;8.70;;;3.40;99.90;;;;;;4367194;28;657873;-69
2022/04/01 12:50:31;;;;;;;11.30;8.17;;;3.50;99.90;;;;;;4367168;28;655730;-69
2022/04/01 12:53:19;;;;;;;16.77;11.90;;;3.50;99.90;;;;;;4371518;28;655652;-69
2022/04/01 12:56:19;;;;;;;15.53;10.50;;;3.60;99.90;;;;;;4364591;28;656729;-69
2022/04/01 12:59:07;;;;;;;17.00;11.60;;;3.60;99.90;;;;;;4371329;28;656826;-69
2022/04/01 13:02:01;;;;;;;15.83;9.57;;;3.60;99.90;;;;;;4385797;28;656893;-69
2022/04/01 13:04:49;;;;;;;16.73;10.70;;;3.50;99.90;;;;;;4360693;28;656164;-69
2022/04/01 13:07:36;;;;;;;19.80;12.30;;;3.60;99.90;;;;;;4361146;28;657052;-69
2022/04/01 13:10:24;;;;;;;15.27;10.50;;;3.60;99.90;;;;;;4382241;28;656187;-69
2022/04/01 13:13:18;;;;;;;12.57;9.20;;;3.60;99.90;;;;;;4370283;28;657081;-69
2022/04/01 13:16:06;;;;;;;12.60;9.37;;;3.60;99.90;;;;;;4346913;28;655589;-69
2022/04/01 13:18:55;;;;;;;13.83;10.10;;;3.40;99.90;;;;;;4395695;28;656070;-69
2022/04/01 13:21:42;;;;;;;12.70;9.23;;;3.50;99.90;;;;;;4364375;28;657108;-69
2022/04/01 13:24:34;;;;;;;14.50;10.20;;;3.60;99.90;;;;;;4388941;28;655683;-69
2022/04/01 13:27:24;;;;;;;15.67;10.53;;;3.50;99.90;;;;;;4346179;28;657364;-69
2022/04/01 13:30:12;;;;;;;11.70;8.67;;;3.70;99.90;;;;;;4363824;28;657272;-69
2022/04/01 13:32:59;;;;;;;14.73;9.93;;;3.70;99.90;;;;;;4398526;28;655225;-69
2022/04/01 13:35:48;;;;;;;12.17;9.23;;;3.80;99.90;;;;;;4370039;28;655359;-69
2022/04/01 13:38:36;;;;;;;12.40;9.37;;;3.90;99.90;;;;;;4372909;28;655601;-69
2022/04/01 13:41:23;;;;;;;14.10;8.97;;;4.10;99.90;;;;;;4389638;28;655632;-69
2022/04/01 13:44:11;;;;;;;10.17;7.93;;;4.00;99.90;;;;;;4364108;28;655554;-69
2022/04/01 13:46:58;;;;;;;11.90;8.20;;;4.10;99.90;;;;;;4383639;28;655906;-69
2022/04/01 13:49:45;;;;;;;9.90;7.37;;;4.00;99.90;;;;;;4372232;28;655286;-69
2022/04/01 13:52:34;;;;;;;10.60;7.33;;;4.00;99.90;;;;;;4391966;28;654609;-69
2022/04/01 13:55:22;;;;;;;10.10;8.17;;;4.20;99.90;;;;;;4371786;28;655383;-69
2022/04/01 13:58:10;;;;;;;15.90;8.97;;;4.10;99.90;;;;;;4394164;28;655337;-69
2022/04/01 14:00:57;;;;;;;11.90;8.47;;;4.20;99.90;;;;;;4365374;28;656558;-69
2022/04/01 14:03:44;;;;;;;11.52;8.32;;;4.30;99.90;;;;;;4381167;28;655454;-69
2022/04/01 14:06:32;;;;;;;15.57;9.97;;;4.30;99.90;;;;;;4366720;28;655716;-69
2022/04/01 14:09:22;;;;;;;16.67;10.13;;;4.30;99.90;;;;;;4387136;28;655035;-69
2022/04/01 14:12:10;;;;;;;13.93;8.77;;;4.30;99.90;;;;;;4366349;28;656331;-69
2022/04/01 14:14:58;;;;;;;13.30;8.33;;;4.30;99.90;;;;;;4358874;28;656343;-69
2022/04/01 14:17:45;;;;;;;20.67;14.07;;;4.30;99.90;;;;;;4377319;28;655389;-69
2022/04/01 14:20:33;;;;;;;14.60;10.37;;;4.20;99.90;;;;;;4390867;28;657508;-69
2022/04/01 14:23:20;;;;;;;13.10;8.40;;;4.10;99.90;;;;;;4378294;28;656160;-69
2022/04/01 14:26:09;;;;;;;13.83;10.17;;;4.10;99.90;;;;;;4394555;28;656340;-69
2022/04/01 14:30:16;;;;;;;20.33;12.90;;;3.90;99.90;;;;;;4376866;28;656949;-68
2022/04/01 14:32:05;;;;;;;15.90;10.87;;;3.80;99.90;;;;;;4370662;28;656530;-69
2022/04/01 14:34:52;;;;;;;16.03;10.53;;;3.70;99.90;;;;;;4370357;28;658475;-68
2022/04/01 14:37:40;;;;;;;24.80;15.03;;;3.50;99.90;;;;;;4389901;28;656708;-68
2022/04/01 14:40:27;;;;;;;19.90;11.20;;;3.30;99.90;;;;;;4371430;28;658980;-68
2022/04/01 14:43:16;;;;;;;13.73;8.82;;;3.30;99.90;;;;;;4391828;28;656639;-68
2022/04/01 14:46:04;;;;;;;19.50;10.97;;;3.20;99.90;;;;;;4371579;28;656418;-69
2022/04/01 14:48:51;;;;;;;23.37;12.63;;;3.00;99.90;;;;;;4372813;28;657045;-68